sensor_id;sensor_type;location;lat;lon;timestamp;temperature;humidity
80228;DHT22;69539;42.138;24.742;2023-07-13T00:02:07;31.50;32.90
80228;DHT22;69539;42.138;24.742;2023-07-13T00:04:32;31.40;33.00
80228;DHT22;69539;42.138;24.742;2023-07-13T00:06:58;31.40;33.00
80228;DHT22;69539;42.138;24.742;2023-07-13T00:09:24;31.40;33.10
80228;DHT22;69539;42.138;24.742;2023-07-13T00:11:55;31.40;33.20
80228;DHT22;69539;42.138;24.742;2023-07-13T00:14:22;31.40;33.30
80228;DHT22;69539;42.138;24.742;2023-07-13T00:16:47;31.40;33.40
80228;DHT22;69539;42.138;24.742;2023-07-13T00:19:14;31.30;33.40
80228;DHT22;69539;42.138;24.742;2023-07-13T00:21:40;31.30;33.50
80228;DHT22;69539;42.138;24.742;2023-07-13T00:24:08;31.30;33.50
80228;DHT22;69539;42.138;24.742;2023-07-13T00:26:33;31.20;33.50
80228;DHT22;69539;42.138;24.742;2023-07-13T00:29:00;31.20;33.60
80228;DHT22;69539;42.138;24.742;2023-07-13T00:31:26;31.20;33.60
80228;DHT22;69539;42.138;24.742;2023-07-13T00:33:51;31.20;33.60
80228;DHT22;69539;42.138;24.742;2023-07-13T00:36:20;31.20;33.60
80228;DHT22;69539;42.138;24.742;2023-07-13T00:38:46;31.10;33.50
80228;DHT22;69539;42.138;24.742;2023-07-13T00:41:12;31.10;33.40
80228;DHT22;69539;42.138;24.742;2023-07-13T00:43:38;31.10;33.40
80228;DHT22;69539;42.138;24.742;2023-07-13T00:46:23;31.10;33.30
80228;DHT22;69539;42.138;24.742;2023-07-13T00:48:50;31.10;33.20
80228;DHT22;69539;42.138;24.742;2023-07-13T00:51:31;31.10;33.10
80228;DHT22;69539;42.138;24.742;2023-07-13T00:54:01;31.00;33.10
80228;DHT22;69539;42.138;24.742;2023-07-13T00:56:30;31.00;33.10
80228;DHT22;69539;42.138;24.742;2023-07-13T00:58:57;31.00;33.00
80228;DHT22;69539;42.138;24.742;2023-07-13T01:01:23;31.00;33.00
80228;DHT22;69539;42.138;24.742;2023-07-13T01:03:49;30.90;32.80
80228;DHT22;69539;42.138;24.742;2023-07-13T01:06:16;31.00;32.90
80228;DHT22;69539;42.138;24.742;2023-07-13T01:08:43;30.90;32.80
80228;DHT22;69539;42.138;24.742;2023-07-13T01:11:08;30.90;32.70
80228;DHT22;69539;42.138;24.742;2023-07-13T01:13:34;30.90;32.70
80228;DHT22;69539;42.138;24.742;2023-07-13T01:16:05;30.90;33.80
80228;DHT22;69539;42.138;24.742;2023-07-13T01:18:37;30.80;32.60
80228;DHT22;69539;42.138;24.742;2023-07-13T01:21:04;30.80;33.60
80228;DHT22;69539;42.138;24.742;2023-07-13T01:23:30;30.80;32.50
80228;DHT22;69539;42.138;24.742;2023-07-13T01:25:57;30.70;32.40
80228;DHT22;69539;42.138;24.742;2023-07-13T01:28:24;30.70;32.40
80228;DHT22;69539;42.138;24.742;2023-07-13T01:30:53;30.70;32.50
80228;DHT22;69539;42.138;24.742;2023-07-13T01:33:19;30.60;32.60
80228;DHT22;69539;42.138;24.742;2023-07-13T01:35:46;30.60;32.70
80228;DHT22;69539;42.138;24.742;2023-07-13T01:38:14;30.60;32.90
80228;DHT22;69539;42.138;24.742;2023-07-13T01:40:40;30.60;33.00
80228;DHT22;69539;42.138;24.742;2023-07-13T01:43:06;30.60;33.10
80228;DHT22;69539;42.138;24.742;2023-07-13T01:45:32;30.50;33.00
80228;DHT22;69539;42.138;24.742;2023-07-13T01:47:57;30.50;33.20
80228;DHT22;69539;42.138;24.742;2023-07-13T01:50:24;30.50;33.20
80228;DHT22;69539;42.138;24.742;2023-07-13T01:52:50;30.50;33.10
80228;DHT22;69539;42.138;24.742;2023-07-13T01:55:15;30.50;33.30
80228;DHT22;69539;42.138;24.742;2023-07-13T01:57:41;30.50;33.40
80228;DHT22;69539;42.138;24.742;2023-07-13T02:00:09;30.40;33.40
80228;DHT22;69539;42.138;24.742;2023-07-13T02:02:35;30.40;33.30
80228;DHT22;69539;42.138;24.742;2023-07-13T02:05:01;30.30;33.30
80228;DHT22;69539;42.138;24.742;2023-07-13T02:07:26;30.30;33.40
80228;DHT22;69539;42.138;24.742;2023-07-13T02:09:52;30.30;33.30
80228;DHT22;69539;42.138;24.742;2023-07-13T02:12:18;30.30;33.30
80228;DHT22;69539;42.138;24.742;2023-07-13T02:14:43;30.30;33.50
80228;DHT22;69539;42.138;24.742;2023-07-13T02:17:10;30.30;33.40
80228;DHT22;69539;42.138;24.742;2023-07-13T02:19:36;30.20;33.30
80228;DHT22;69539;42.138;24.742;2023-07-13T02:22:02;30.20;33.40
80228;DHT22;69539;42.138;24.742;2023-07-13T02:24:28;30.20;33.40
80228;DHT22;69539;42.138;24.742;2023-07-13T02:26:53;30.20;33.40
80228;DHT22;69539;42.138;24.742;2023-07-13T02:29:19;30.20;33.50
80228;DHT22;69539;42.138;24.742;2023-07-13T02:31:45;30.20;33.60
80228;DHT22;69539;42.138;24.742;2023-07-13T02:34:10;30.20;33.70
80228;DHT22;69539;42.138;24.742;2023-07-13T02:36:36;30.10;33.70
80228;DHT22;69539;42.138;24.742;2023-07-13T02:39:04;30.10;33.80
80228;DHT22;69539;42.138;24.742;2023-07-13T02:41:30;30.10;33.90
80228;DHT22;69539;42.138;24.742;2023-07-13T02:43:58;30.00;33.90
80228;DHT22;69539;42.138;24.742;2023-07-13T02:46:32;30.00;33.90
80228;DHT22;69539;42.138;24.742;2023-07-13T02:48:58;30.00;33.70
80228;DHT22;69539;42.138;24.742;2023-07-13T02:51:23;30.00;33.80
80228;DHT22;69539;42.138;24.742;2023-07-13T02:53:49;29.90;33.80
80228;DHT22;69539;42.138;24.742;2023-07-13T02:56:15;29.90;34.00
80228;DHT22;69539;42.138;24.742;2023-07-13T02:58:40;29.90;34.10
80228;DHT22;69539;42.138;24.742;2023-07-13T03:01:08;29.90;34.00
80228;DHT22;69539;42.138;24.742;2023-07-13T03:03:34;29.90;34.00
80228;DHT22;69539;42.138;24.742;2023-07-13T03:06:01;29.80;34.00
80228;DHT22;69539;42.138;24.742;2023-07-13T03:08:29;29.80;34.00
80228;DHT22;69539;42.138;24.742;2023-07-13T03:11:06;29.80;34.00
80228;DHT22;69539;42.138;24.742;2023-07-13T03:13:32;29.80;34.00
80228;DHT22;69539;42.138;24.742;2023-07-13T03:15:58;29.70;34.00
80228;DHT22;69539;42.138;24.742;2023-07-13T03:18:25;29.70;34.00
80228;DHT22;69539;42.138;24.742;2023-07-13T03:20:51;29.70;34.00
80228;DHT22;69539;42.138;24.742;2023-07-13T03:23:18;29.70;34.10
80228;DHT22;69539;42.138;24.742;2023-07-13T03:25:44;29.70;34.10
80228;DHT22;69539;42.138;24.742;2023-07-13T03:28:11;29.70;34.20
80228;DHT22;69539;42.138;24.742;2023-07-13T03:30:37;29.70;34.10
80228;DHT22;69539;42.138;24.742;2023-07-13T03:33:02;29.70;34.20
80228;DHT22;69539;42.138;24.742;2023-07-13T03:35:28;29.70;34.10
80228;DHT22;69539;42.138;24.742;2023-07-13T03:37:54;29.70;34.00
80228;DHT22;69539;42.138;24.742;2023-07-13T03:40:19;29.70;33.90
80228;DHT22;69539;42.138;24.742;2023-07-13T03:42:45;29.70;33.80
80228;DHT22;69539;42.138;24.742;2023-07-13T03:45:11;29.80;33.70
80228;DHT22;69539;42.138;24.742;2023-07-13T03:47:36;29.80;33.70
80228;DHT22;69539;42.138;24.742;2023-07-13T03:50:02;29.80;33.70
80228;DHT22;69539;42.138;24.742;2023-07-13T03:52:29;29.90;33.60
80228;DHT22;69539;42.138;24.742;2023-07-13T03:54:54;29.90;33.50
80228;DHT22;69539;42.138;24.742;2023-07-13T03:57:20;29.90;33.40
80228;DHT22;69539;42.138;24.742;2023-07-13T03:59:46;30.00;33.50
80228;DHT22;69539;42.138;24.742;2023-07-13T04:02:11;30.00;33.40
80228;DHT22;69539;42.138;24.742;2023-07-13T04:04:37;30.10;33.40
80228;DHT22;69539;42.138;24.742;2023-07-13T04:07:06;30.20;33.50
80228;DHT22;69539;42.138;24.742;2023-07-13T04:09:32;30.20;33.40
80228;DHT22;69539;42.138;24.742;2023-07-13T04:11:58;30.20;33.10
80228;DHT22;69539;42.138;24.742;2023-07-13T04:14:24;30.30;33.10
80228;DHT22;69539;42.138;24.742;2023-07-13T04:16:49;30.40;32.90
80228;DHT22;69539;42.138;24.742;2023-07-13T04:19:15;30.40;32.40
80228;DHT22;69539;42.138;24.742;2023-07-13T04:21:40;30.50;32.10
80228;DHT22;69539;42.138;24.742;2023-07-13T04:24:06;30.60;32.00
80228;DHT22;69539;42.138;24.742;2023-07-13T04:26:33;30.60;31.80
80228;DHT22;69539;42.138;24.742;2023-07-13T04:29:01;30.60;31.60
80228;DHT22;69539;42.138;24.742;2023-07-13T04:31:29;30.80;31.90
80228;DHT22;69539;42.138;24.742;2023-07-13T04:33:55;30.80;31.60
80228;DHT22;69539;42.138;24.742;2023-07-13T04:36:20;30.80;31.30
80228;DHT22;69539;42.138;24.742;2023-07-13T04:38:46;30.90;31.60
80228;DHT22;69539;42.138;24.742;2023-07-13T04:41:13;31.00;31.70
80228;DHT22;69539;42.138;24.742;2023-07-13T04:43:39;31.10;31.60
80228;DHT22;69539;42.138;24.742;2023-07-13T04:46:11;31.10;31.50
80228;DHT22;69539;42.138;24.742;2023-07-13T04:48:37;31.20;31.30
80228;DHT22;69539;42.138;24.742;2023-07-13T04:51:03;31.30;31.20
80228;DHT22;69539;42.138;24.742;2023-07-13T04:53:30;31.40;31.20
80228;DHT22;69539;42.138;24.742;2023-07-13T04:55:56;31.50;31.10
80228;DHT22;69539;42.138;24.742;2023-07-13T04:58:22;31.60;30.90
80228;DHT22;69539;42.138;24.742;2023-07-13T05:00:48;31.70;30.90
80228;DHT22;69539;42.138;24.742;2023-07-13T05:03:14;31.80;30.80
80228;DHT22;69539;42.138;24.742;2023-07-13T05:05:40;31.90;30.80
80228;DHT22;69539;42.138;24.742;2023-07-13T05:08:05;32.00;30.60
80228;DHT22;69539;42.138;24.742;2023-07-13T05:10:33;32.00;30.40
80228;DHT22;69539;42.138;24.742;2023-07-13T05:12:58;32.20;30.40
80228;DHT22;69539;42.138;24.742;2023-07-13T05:15:24;32.20;30.30
80228;DHT22;69539;42.138;24.742;2023-07-13T05:17:51;32.30;30.30
80228;DHT22;69539;42.138;24.742;2023-07-13T05:20:18;32.40;30.30
80228;DHT22;69539;42.138;24.742;2023-07-13T05:22:44;32.50;30.50
80228;DHT22;69539;42.138;24.742;2023-07-13T05:25:12;32.70;30.40
80228;DHT22;69539;42.138;24.742;2023-07-13T05:27:38;32.80;30.10
80228;DHT22;69539;42.138;24.742;2023-07-13T05:30:05;32.80;30.10
80228;DHT22;69539;42.138;24.742;2023-07-13T05:32:31;33.00;30.00
80228;DHT22;69539;42.138;24.742;2023-07-13T05:34:57;33.10;30.00
80228;DHT22;69539;42.138;24.742;2023-07-13T05:37:22;33.20;29.50
80228;DHT22;69539;42.138;24.742;2023-07-13T05:39:48;33.30;29.60
80228;DHT22;69539;42.138;24.742;2023-07-13T05:42:14;33.30;29.90
80228;DHT22;69539;42.138;24.742;2023-07-13T05:44:40;33.50;29.40
80228;DHT22;69539;42.138;24.742;2023-07-13T05:47:05;33.60;29.40
80228;DHT22;69539;42.138;24.742;2023-07-13T05:49:31;33.60;29.40
80228;DHT22;69539;42.138;24.742;2023-07-13T05:51:57;33.80;29.50
80228;DHT22;69539;42.138;24.742;2023-07-13T05:54:24;33.90;29.50
80228;DHT22;69539;42.138;24.742;2023-07-13T05:56:50;34.00;29.30
80228;DHT22;69539;42.138;24.742;2023-07-13T05:59:15;34.10;29.10
80228;DHT22;69539;42.138;24.742;2023-07-13T06:01:42;34.20;29.10
80228;DHT22;69539;42.138;24.742;2023-07-13T06:04:08;34.40;28.80
80228;DHT22;69539;42.138;24.742;2023-07-13T06:06:34;34.50;28.60
80228;DHT22;69539;42.138;24.742;2023-07-13T06:08:59;34.60;28.60
80228;DHT22;69539;42.138;24.742;2023-07-13T06:11:26;34.70;28.60
80228;DHT22;69539;42.138;24.742;2023-07-13T06:13:53;34.80;28.60
80228;DHT22;69539;42.138;24.742;2023-07-13T06:16:19;34.90;28.40
80228;DHT22;69539;42.138;24.742;2023-07-13T06:18:45;35.00;28.30
80228;DHT22;69539;42.138;24.742;2023-07-13T06:21:16;35.00;28.10
80228;DHT22;69539;42.138;24.742;2023-07-13T06:23:43;35.20;28.10
80228;DHT22;69539;42.138;24.742;2023-07-13T06:26:10;35.30;27.90
80228;DHT22;69539;42.138;24.742;2023-07-13T06:28:36;35.40;27.60
80228;DHT22;69539;42.138;24.742;2023-07-13T06:31:06;35.50;27.80
80228;DHT22;69539;42.138;24.742;2023-07-13T06:33:31;35.60;27.80
80228;DHT22;69539;42.138;24.742;2023-07-13T06:35:57;35.70;27.90
80228;DHT22;69539;42.138;24.742;2023-07-13T06:38:23;35.80;27.70
80228;DHT22;69539;42.138;24.742;2023-07-13T06:40:48;35.90;27.50
80228;DHT22;69539;42.138;24.742;2023-07-13T06:43:14;36.10;27.40
80228;DHT22;69539;42.138;24.742;2023-07-13T06:45:43;36.20;27.20
80228;DHT22;69539;42.138;24.742;2023-07-13T06:48:11;36.30;27.30
80228;DHT22;69539;42.138;24.742;2023-07-13T06:50:37;36.40;27.00
80228;DHT22;69539;42.138;24.742;2023-07-13T06:53:03;36.50;27.00
80228;DHT22;69539;42.138;24.742;2023-07-13T06:55:28;36.60;26.70
80228;DHT22;69539;42.138;24.742;2023-07-13T06:57:54;36.70;26.50
80228;DHT22;69539;42.138;24.742;2023-07-13T07:00:20;36.80;26.60
80228;DHT22;69539;42.138;24.742;2023-07-13T07:02:46;36.90;26.50
80228;DHT22;69539;42.138;24.742;2023-07-13T07:05:12;37.10;26.30
80228;DHT22;69539;42.138;24.742;2023-07-13T07:07:37;37.20;26.10
80228;DHT22;69539;42.138;24.742;2023-07-13T07:10:03;37.30;26.20
80228;DHT22;69539;42.138;24.742;2023-07-13T07:12:29;37.40;26.20
80228;DHT22;69539;42.138;24.742;2023-07-13T07:14:55;37.50;25.90
80228;DHT22;69539;42.138;24.742;2023-07-13T07:17:21;37.60;25.80
80228;DHT22;69539;42.138;24.742;2023-07-13T07:19:46;37.70;25.60
80228;DHT22;69539;42.138;24.742;2023-07-13T07:22:12;37.80;25.20
80228;DHT22;69539;42.138;24.742;2023-07-13T07:24:38;38.00;25.20
80228;DHT22;69539;42.138;24.742;2023-07-13T07:27:04;38.10;25.20
80228;DHT22;69539;42.138;24.742;2023-07-13T07:29:29;38.10;24.80
80228;DHT22;69539;42.138;24.742;2023-07-13T07:31:55;38.30;25.60
80228;DHT22;69539;42.138;24.742;2023-07-13T07:34:21;38.30;24.50
80228;DHT22;69539;42.138;24.742;2023-07-13T07:36:47;38.40;24.10
80228;DHT22;69539;42.138;24.742;2023-07-13T07:39:12;38.50;23.80
80228;DHT22;69539;42.138;24.742;2023-07-13T07:41:38;38.60;23.90
80228;DHT22;69539;42.138;24.742;2023-07-13T07:44:04;38.70;23.50
80228;DHT22;69539;42.138;24.742;2023-07-13T07:46:32;38.80;23.40
80228;DHT22;69539;42.138;24.742;2023-07-13T07:48:57;38.90;23.10
80228;DHT22;69539;42.138;24.742;2023-07-13T07:51:23;38.90;23.10
80228;DHT22;69539;42.138;24.742;2023-07-13T07:53:49;39.00;22.50
80228;DHT22;69539;42.138;24.742;2023-07-13T07:56:14;39.10;22.60
80228;DHT22;69539;42.138;24.742;2023-07-13T07:58:42;39.10;22.70
80228;DHT22;69539;42.138;24.742;2023-07-13T08:01:08;39.20;22.40
80228;DHT22;69539;42.138;24.742;2023-07-13T08:03:34;39.30;22.40
80228;DHT22;69539;42.138;24.742;2023-07-13T08:05:59;39.40;22.40
80228;DHT22;69539;42.138;24.742;2023-07-13T08:08:25;39.40;22.30
80228;DHT22;69539;42.138;24.742;2023-07-13T08:10:52;39.50;22.30
80228;DHT22;69539;42.138;24.742;2023-07-13T08:13:18;39.60;22.20
80228;DHT22;69539;42.138;24.742;2023-07-13T08:15:43;39.70;22.20
80228;DHT22;69539;42.138;24.742;2023-07-13T08:18:09;39.80;22.10
80228;DHT22;69539;42.138;24.742;2023-07-13T08:20:39;39.90;22.10
80228;DHT22;69539;42.138;24.742;2023-07-13T08:23:05;40.00;21.70
80228;DHT22;69539;42.138;24.742;2023-07-13T08:25:30;40.00;21.10
80228;DHT22;69539;42.138;24.742;2023-07-13T08:27:56;40.00;21.10
80228;DHT22;69539;42.138;24.742;2023-07-13T08:30:22;40.00;21.10
80228;DHT22;69539;42.138;24.742;2023-07-13T08:32:48;40.10;20.90
80228;DHT22;69539;42.138;24.742;2023-07-13T08:35:15;40.20;21.10
80228;DHT22;69539;42.138;24.742;2023-07-13T08:37:41;40.30;20.90
80228;DHT22;69539;42.138;24.742;2023-07-13T08:40:10;40.30;20.70
80228;DHT22;69539;42.138;24.742;2023-07-13T08:42:44;40.40;20.60
80228;DHT22;69539;42.138;24.742;2023-07-13T08:47:57;40.40;20.40
80228;DHT22;69539;42.138;24.742;2023-07-13T08:50:29;40.50;20.40
80228;DHT22;69539;42.138;24.742;2023-07-13T08:52:56;40.60;20.40
80228;DHT22;69539;42.138;24.742;2023-07-13T08:55:27;40.60;20.10
80228;DHT22;69539;42.138;24.742;2023-07-13T09:00:49;40.70;19.60
80228;DHT22;69539;42.138;24.742;2023-07-13T09:06:14;40.80;19.70
80228;DHT22;69539;42.138;24.742;2023-07-13T09:08:55;40.80;19.50
80228;DHT22;69539;42.138;24.742;2023-07-13T09:11:41;40.90;19.30
80228;DHT22;69539;42.138;24.742;2023-07-13T09:16:57;40.90;19.30
80228;DHT22;69539;42.138;24.742;2023-07-13T09:19:27;41.00;19.40
80228;DHT22;69539;42.138;24.742;2023-07-13T09:21:55;41.00;19.30
80228;DHT22;69539;42.138;24.742;2023-07-13T09:27:33;41.20;19.30
80228;DHT22;69539;42.138;24.742;2023-07-13T09:30:23;41.20;19.00
80228;DHT22;69539;42.138;24.742;2023-07-13T09:32:52;41.30;18.90
80228;DHT22;69539;42.138;24.742;2023-07-13T09:35:28;41.30;18.80
80228;DHT22;69539;42.138;24.742;2023-07-13T09:38:01;41.40;18.50
80228;DHT22;69539;42.138;24.742;2023-07-13T09:43:20;41.40;17.90
80228;DHT22;69539;42.138;24.742;2023-07-13T09:45:47;41.40;17.30
80228;DHT22;69539;42.138;24.742;2023-07-13T09:48:14;41.40;17.20
80228;DHT22;69539;42.138;24.742;2023-07-13T09:50:42;41.40;17.20
80228;DHT22;69539;42.138;24.742;2023-07-13T09:53:16;41.40;17.60
80228;DHT22;69539;42.138;24.742;2023-07-13T09:55:44;41.40;17.90
80228;DHT22;69539;42.138;24.742;2023-07-13T09:58:20;41.40;17.90
80228;DHT22;69539;42.138;24.742;2023-07-13T10:00:56;41.40;17.70
80228;DHT22;69539;42.138;24.742;2023-07-13T10:03:28;41.40;17.70
80228;DHT22;69539;42.138;24.742;2023-07-13T10:06:09;41.40;17.80
80228;DHT22;69539;42.138;24.742;2023-07-13T10:08:36;41.40;17.50
80228;DHT22;69539;42.138;24.742;2023-07-13T10:11:26;41.40;17.20
80228;DHT22;69539;42.138;24.742;2023-07-13T10:14:01;41.40;17.40
80228;DHT22;69539;42.138;24.742;2023-07-13T10:16:35;41.40;17.40
80228;DHT22;69539;42.138;24.742;2023-07-13T10:19:05;41.40;17.20
80228;DHT22;69539;42.138;24.742;2023-07-13T10:21:36;41.20;17.80
80228;DHT22;69539;42.138;24.742;2023-07-13T10:24:17;41.20;17.80
80228;DHT22;69539;42.138;24.742;2023-07-13T10:26:52;41.20;17.80
80228;DHT22;69539;42.138;24.742;2023-07-13T10:29:22;41.10;17.40
80228;DHT22;69539;42.138;24.742;2023-07-13T10:31:49;41.20;17.20
80228;DHT22;69539;42.138;24.742;2023-07-13T10:34:15;41.10;17.10
80228;DHT22;69539;42.138;24.742;2023-07-13T10:36:47;41.10;17.30
80228;DHT22;69539;42.138;24.742;2023-07-13T10:39:17;41.00;17.20
80228;DHT22;69539;42.138;24.742;2023-07-13T10:41:48;41.00;17.10
80228;DHT22;69539;42.138;24.742;2023-07-13T10:44:26;41.00;17.20
80228;DHT22;69539;42.138;24.742;2023-07-13T10:47:11;40.90;17.50
80228;DHT22;69539;42.138;24.742;2023-07-13T10:49:40;40.90;17.60
80228;DHT22;69539;42.138;24.742;2023-07-13T10:55:41;40.80;17.30
80228;DHT22;69539;42.138;24.742;2023-07-13T10:58:35;40.80;17.20
80228;DHT22;69539;42.138;24.742;2023-07-13T11:01:13;40.70;17.30
80228;DHT22;69539;42.138;24.742;2023-07-13T11:03:55;40.70;17.50
80228;DHT22;69539;42.138;24.742;2023-07-13T11:09:00;40.70;17.30
80228;DHT22;69539;42.138;24.742;2023-07-13T11:14:25;40.60;17.00
80228;DHT22;69539;42.138;24.742;2023-07-13T11:16:50;40.60;17.00
80228;DHT22;69539;42.138;24.742;2023-07-13T11:25:20;40.40;16.70
80228;DHT22;69539;42.138;24.742;2023-07-13T11:30:39;40.40;16.80
80228;DHT22;69539;42.138;24.742;2023-07-13T11:36:18;40.40;16.80
80228;DHT22;69539;42.138;24.742;2023-07-13T11:39:17;40.40;16.90
80228;DHT22;69539;42.138;24.742;2023-07-13T11:41:53;40.40;16.90
80228;DHT22;69539;42.138;24.742;2023-07-13T11:44:24;40.40;16.50
80228;DHT22;69539;42.138;24.742;2023-07-13T11:46:55;40.40;16.50
80228;DHT22;69539;42.138;24.742;2023-07-13T11:49:23;40.40;16.70
80228;DHT22;69539;42.138;24.742;2023-07-13T11:51:50;40.40;16.80
80228;DHT22;69539;42.138;24.742;2023-07-13T11:54:34;40.40;16.70
80228;DHT22;69539;42.138;24.742;2023-07-13T11:57:32;40.40;16.70
80228;DHT22;69539;42.138;24.742;2023-07-13T12:00:11;40.30;16.70
80228;DHT22;69539;42.138;24.742;2023-07-13T12:02:40;40.30;16.70
80228;DHT22;69539;42.138;24.742;2023-07-13T12:05:11;40.30;16.80
80228;DHT22;69539;42.138;24.742;2023-07-13T12:07:38;40.30;16.70
80228;DHT22;69539;42.138;24.742;2023-07-13T12:12:53;40.30;16.30
80228;DHT22;69539;42.138;24.742;2023-07-13T12:15:21;40.30;15.90
80228;DHT22;69539;42.138;24.742;2023-07-13T12:17:48;40.20;15.80
80228;DHT22;69539;42.138;24.742;2023-07-13T12:20:25;40.20;15.90
80228;DHT22;69539;42.138;24.742;2023-07-13T12:22:52;40.20;16.00
80228;DHT22;69539;42.138;24.742;2023-07-13T12:25:19;40.20;16.00
80228;DHT22;69539;42.138;24.742;2023-07-13T12:27:49;40.20;15.90
80228;DHT22;69539;42.138;24.742;2023-07-13T12:33:21;40.20;15.30
80228;DHT22;69539;42.138;24.742;2023-07-13T12:35:52;40.20;15.30
80228;DHT22;69539;42.138;24.742;2023-07-13T12:38:18;40.10;15.30
80228;DHT22;69539;42.138;24.742;2023-07-13T12:40:49;40.10;16.10
80228;DHT22;69539;42.138;24.742;2023-07-13T12:43:16;40.10;15.80
80228;DHT22;69539;42.138;24.742;2023-07-13T12:46:00;40.10;15.80
80228;DHT22;69539;42.138;24.742;2023-07-13T12:48:26;40.00;15.80
80228;DHT22;69539;42.138;24.742;2023-07-13T12:50:54;40.00;15.90
80228;DHT22;69539;42.138;24.742;2023-07-13T12:53:23;40.00;16.00
80228;DHT22;69539;42.138;24.742;2023-07-13T12:55:53;40.00;15.90
80228;DHT22;69539;42.138;24.742;2023-07-13T12:58:30;40.00;16.00
80228;DHT22;69539;42.138;24.742;2023-07-13T13:00:59;40.00;16.00
80228;DHT22;69539;42.138;24.742;2023-07-13T13:03:34;40.00;16.30
80228;DHT22;69539;42.138;24.742;2023-07-13T13:06:04;40.00;16.30
80228;DHT22;69539;42.138;24.742;2023-07-13T13:08:34;40.00;16.40
80228;DHT22;69539;42.138;24.742;2023-07-13T13:11:01;39.90;16.40
80228;DHT22;69539;42.138;24.742;2023-07-13T13:13:27;39.90;16.60
80228;DHT22;69539;42.138;24.742;2023-07-13T13:15:54;39.90;16.90
80228;DHT22;69539;42.138;24.742;2023-07-13T13:18:21;39.90;17.50
80228;DHT22;69539;42.138;24.742;2023-07-13T13:20:49;39.90;17.40
80228;DHT22;69539;42.138;24.742;2023-07-13T13:23:17;39.90;17.10
80228;DHT22;69539;42.138;24.742;2023-07-13T13:25:46;39.80;16.90
80228;DHT22;69539;42.138;24.742;2023-07-13T13:28:18;39.80;16.80
80228;DHT22;69539;42.138;24.742;2023-07-13T13:30:45;39.80;16.80
80228;DHT22;69539;42.138;24.742;2023-07-13T13:33:14;39.80;16.70
80228;DHT22;69539;42.138;24.742;2023-07-13T13:35:41;39.80;16.60
80228;DHT22;69539;42.138;24.742;2023-07-13T13:38:20;39.80;16.50
80228;DHT22;69539;42.138;24.742;2023-07-13T13:40:46;39.80;16.70
80228;DHT22;69539;42.138;24.742;2023-07-13T13:43:20;39.70;16.50
80228;DHT22;69539;42.138;24.742;2023-07-13T13:45:46;39.70;16.40
80228;DHT22;69539;42.138;24.742;2023-07-13T13:48:20;39.70;16.30
80228;DHT22;69539;42.138;24.742;2023-07-13T13:50:48;39.70;16.10
80228;DHT22;69539;42.138;24.742;2023-07-13T13:53:14;39.70;15.90
80228;DHT22;69539;42.138;24.742;2023-07-13T13:55:41;39.70;15.80
80228;DHT22;69539;42.138;24.742;2023-07-13T13:58:09;39.60;15.80
80228;DHT22;69539;42.138;24.742;2023-07-13T14:00:38;39.60;15.80
80228;DHT22;69539;42.138;24.742;2023-07-13T14:03:05;39.60;15.90
80228;DHT22;69539;42.138;24.742;2023-07-13T14:05:32;39.60;15.40
80228;DHT22;69539;42.138;24.742;2023-07-13T14:07:58;39.50;15.60
80228;DHT22;69539;42.138;24.742;2023-07-13T14:10:25;39.50;15.90
80228;DHT22;69539;42.138;24.742;2023-07-13T14:12:54;39.50;16.10
80228;DHT22;69539;42.138;24.742;2023-07-13T14:15:28;39.50;16.10
80228;DHT22;69539;42.138;24.742;2023-07-13T14:17:56;39.40;16.20
80228;DHT22;69539;42.138;24.742;2023-07-13T14:20:24;39.40;16.10
80228;DHT22;69539;42.138;24.742;2023-07-13T14:22:51;39.50;16.20
80228;DHT22;69539;42.138;24.742;2023-07-13T14:25:19;39.50;16.30
80228;DHT22;69539;42.138;24.742;2023-07-13T14:27:48;39.40;16.30
80228;DHT22;69539;42.138;24.742;2023-07-13T14:30:15;39.40;16.40
80228;DHT22;69539;42.138;24.742;2023-07-13T14:32:42;39.40;16.30
80228;DHT22;69539;42.138;24.742;2023-07-13T14:35:11;39.40;16.30
80228;DHT22;69539;42.138;24.742;2023-07-13T14:37:38;39.40;16.40
80228;DHT22;69539;42.138;24.742;2023-07-13T14:40:29;39.40;16.40
80228;DHT22;69539;42.138;24.742;2023-07-13T14:42:55;39.30;16.40
80228;DHT22;69539;42.138;24.742;2023-07-13T14:45:21;39.40;16.40
80228;DHT22;69539;42.138;24.742;2023-07-13T14:47:47;39.30;16.40
80228;DHT22;69539;42.138;24.742;2023-07-13T14:50:22;39.30;16.50
80228;DHT22;69539;42.138;24.742;2023-07-13T14:52:48;39.30;16.50
80228;DHT22;69539;42.138;24.742;2023-07-13T14:55:16;39.30;16.50
80228;DHT22;69539;42.138;24.742;2023-07-13T14:57:42;39.30;16.30
80228;DHT22;69539;42.138;24.742;2023-07-13T15:00:15;39.30;16.30
80228;DHT22;69539;42.138;24.742;2023-07-13T15:02:44;39.30;16.10
80228;DHT22;69539;42.138;24.742;2023-07-13T15:05:15;39.30;16.10
80228;DHT22;69539;42.138;24.742;2023-07-13T15:07:41;39.30;16.00
80228;DHT22;69539;42.138;24.742;2023-07-13T15:10:22;39.30;16.10
80228;DHT22;69539;42.138;24.742;2023-07-13T15:12:50;39.30;16.10
80228;DHT22;69539;42.138;24.742;2023-07-13T15:15:16;39.20;16.10
80228;DHT22;69539;42.138;24.742;2023-07-13T15:17:44;39.20;16.10
80228;DHT22;69539;42.138;24.742;2023-07-13T15:20:29;39.20;16.10
80228;DHT22;69539;42.138;24.742;2023-07-13T15:22:55;39.20;16.10
80228;DHT22;69539;42.138;24.742;2023-07-13T15:25:25;39.20;16.20
80228;DHT22;69539;42.138;24.742;2023-07-13T15:27:53;39.20;17.10
80228;DHT22;69539;42.138;24.742;2023-07-13T15:30:19;39.10;16.00
80228;DHT22;69539;42.138;24.742;2023-07-13T15:32:46;39.10;16.00
80228;DHT22;69539;42.138;24.742;2023-07-13T15:35:20;39.20;16.10
80228;DHT22;69539;42.138;24.742;2023-07-13T15:37:47;39.10;16.00
80228;DHT22;69539;42.138;24.742;2023-07-13T15:40:14;39.10;16.10
80228;DHT22;69539;42.138;24.742;2023-07-13T15:42:44;39.10;16.10
80228;DHT22;69539;42.138;24.742;2023-07-13T15:45:19;39.10;16.20
80228;DHT22;69539;42.138;24.742;2023-07-13T15:47:46;39.00;16.20
80228;DHT22;69539;42.138;24.742;2023-07-13T15:50:20;39.00;16.30
80228;DHT22;69539;42.138;24.742;2023-07-13T15:52:52;39.10;16.20
80228;DHT22;69539;42.138;24.742;2023-07-13T15:55:19;39.10;16.30
80228;DHT22;69539;42.138;24.742;2023-07-13T15:57:52;39.10;16.40
80228;DHT22;69539;42.138;24.742;2023-07-13T16:00:21;39.00;16.50
80228;DHT22;69539;42.138;24.742;2023-07-13T16:02:48;39.00;16.50
80228;DHT22;69539;42.138;24.742;2023-07-13T16:05:14;39.00;16.60
80228;DHT22;69539;42.138;24.742;2023-07-13T16:07:44;39.00;16.90